sensor_id;sensor_type;location;lat;lon;timestamp;P1;durP1;ratioP1;P2;durP2;ratioP2
20832;SDS011;56075;51.264;7.150;2023-02-07T00:01:45;34.63;;;8.90;;
20832;SDS011;56075;51.264;7.150;2023-02-07T00:04:16;28.97;;;8.43;;
20832;SDS011;56075;51.264;7.150;2023-02-07T00:06:48;24.23;;;7.73;;
20832;SDS011;56075;51.264;7.150;2023-02-07T00:09:19;25.80;;;8.00;;
20832;SDS011;56075;51.264;7.150;2023-02-07T00:11:50;30.07;;;8.13;;
20832;SDS011;56075;51.264;7.150;2023-02-07T00:14:22;32.93;;;8.87;;
20832;SDS011;56075;51.264;7.150;2023-02-07T00:16:53;27.17;;;8.33;;
20832;SDS011;56075;51.264;7.150;2023-02-07T00:19:25;27.37;;;8.20;;
20832;SDS011;56075;51.264;7.150;2023-02-07T00:21:56;26.80;;;7.60;;
20832;SDS011;56075;51.264;7.150;2023-02-07T00:24:28;26.33;;;7.67;;
20832;SDS011;56075;51.264;7.150;2023-02-07T00:26:59;26.50;;;7.27;;
20832;SDS011;56075;51.264;7.150;2023-02-07T00:29:31;28.27;;;7.57;;
20832;SDS011;56075;51.264;7.150;2023-02-07T00:32:02;22.87;;;6.80;;
20832;SDS011;56075;51.264;7.150;2023-02-07T00:34:34;26.10;;;7.20;;
20832;SDS011;56075;51.264;7.150;2023-02-07T00:37:05;20.93;;;6.87;;
20832;SDS011;56075;51.264;7.150;2023-02-07T00:39:37;20.20;;;6.93;;
20832;SDS011;56075;51.264;7.150;2023-02-07T00:42:08;24.00;;;7.37;;
20832;SDS011;56075;51.264;7.150;2023-02-07T00:44:40;19.13;;;6.60;;
20832;SDS011;56075;51.264;7.150;2023-02-07T00:47:12;22.60;;;6.90;;
20832;SDS011;56075;51.264;7.150;2023-02-07T00:49:43;23.60;;;6.67;;
20832;SDS011;56075;51.264;7.150;2023-02-07T00:52:14;24.47;;;7.53;;
20832;SDS011;56075;51.264;7.150;2023-02-07T00:54:46;18.97;;;6.40;;
20832;SDS011;56075;51.264;7.150;2023-02-07T00:57:17;25.07;;;7.43;;
20832;SDS011;56075;51.264;7.150;2023-02-07T00:59:50;19.23;;;6.23;;
20832;SDS011;56075;51.264;7.150;2023-02-07T01:02:21;25.70;;;6.07;;
20832;SDS011;56075;51.264;7.150;2023-02-07T01:04:53;21.20;;;6.30;;
20832;SDS011;56075;51.264;7.150;2023-02-07T01:07:24;20.57;;;6.30;;
20832;SDS011;56075;51.264;7.150;2023-02-07T01:09:56;17.40;;;6.13;;
20832;SDS011;56075;51.264;7.150;2023-02-07T01:12:27;20.57;;;6.27;;
20832;SDS011;56075;51.264;7.150;2023-02-07T01:14:59;21.60;;;6.57;;
20832;SDS011;56075;51.264;7.150;2023-02-07T01:17:30;19.60;;;6.60;;
20832;SDS011;56075;51.264;7.150;2023-02-07T01:20:02;19.10;;;6.00;;
20832;SDS011;56075;51.264;7.150;2023-02-07T01:22:33;22.37;;;6.60;;
20832;SDS011;56075;51.264;7.150;2023-02-07T01:25:06;20.20;;;7.07;;
20832;SDS011;56075;51.264;7.150;2023-02-07T01:27:38;18.23;;;5.93;;
20832;SDS011;56075;51.264;7.150;2023-02-07T01:30:11;16.77;;;5.70;;
20832;SDS011;56075;51.264;7.150;2023-02-07T01:32:42;20.37;;;4.80;;
20832;SDS011;56075;51.264;7.150;2023-02-07T01:35:14;14.27;;;5.17;;
20832;SDS011;56075;51.264;7.150;2023-02-07T01:37:45;17.87;;;6.57;;
20832;SDS011;56075;51.264;7.150;2023-02-07T01:40:16;15.57;;;5.30;;
20832;SDS011;56075;51.264;7.150;2023-02-07T01:42:48;17.67;;;6.10;;
20832;SDS011;56075;51.264;7.150;2023-02-07T01:45:25;18.43;;;6.23;;
20832;SDS011;56075;51.264;7.150;2023-02-07T01:47:59;15.83;;;5.53;;
20832;SDS011;56075;51.264;7.150;2023-02-07T01:50:31;13.43;;;4.80;;
20832;SDS011;56075;51.264;7.150;2023-02-07T01:53:03;14.50;;;5.07;;
20832;SDS011;56075;51.264;7.150;2023-02-07T01:55:35;14.83;;;5.00;;
20832;SDS011;56075;51.264;7.150;2023-02-07T01:58:08;16.87;;;5.70;;
20832;SDS011;56075;51.264;7.150;2023-02-07T02:00:39;11.83;;;5.13;;
20832;SDS011;56075;51.264;7.150;2023-02-07T02:03:11;15.30;;;5.73;;
20832;SDS011;56075;51.264;7.150;2023-02-07T02:05:42;13.67;;;5.53;;
20832;SDS011;56075;51.264;7.150;2023-02-07T02:08:14;13.63;;;5.13;;
20832;SDS011;56075;51.264;7.150;2023-02-07T02:11:06;14.47;;;5.43;;
20832;SDS011;56075;51.264;7.150;2023-02-07T02:13:45;14.83;;;5.10;;
20832;SDS011;56075;51.264;7.150;2023-02-07T02:18:53;15.67;;;5.07;;
20832;SDS011;56075;51.264;7.150;2023-02-07T02:24:06;10.00;;;4.10;;
20832;SDS011;56075;51.264;7.150;2023-02-07T02:26:53;10.33;;;4.50;;
20832;SDS011;56075;51.264;7.150;2023-02-07T02:37:48;11.13;;;4.10;;
20832;SDS011;56075;51.264;7.150;2023-02-07T02:43:13;14.07;;;4.47;;
20832;SDS011;56075;51.264;7.150;2023-02-07T02:45:49;11.07;;;4.60;;
20832;SDS011;56075;51.264;7.150;2023-02-07T02:48:22;14.17;;;4.10;;
20832;SDS011;56075;51.264;7.150;2023-02-07T02:50:54;13.17;;;3.80;;
20832;SDS011;56075;51.264;7.150;2023-02-07T02:53:25;9.57;;;3.93;;
20832;SDS011;56075;51.264;7.150;2023-02-07T02:56:09;9.73;;;4.10;;
20832;SDS011;56075;51.264;7.150;2023-02-07T03:11:56;11.97;;;4.50;;
20832;SDS011;56075;51.264;7.150;2023-02-07T03:17:13;11.97;;;4.30;;
20832;SDS011;56075;51.264;7.150;2023-02-07T03:19:48;12.97;;;4.57;;
20832;SDS011;56075;51.264;7.150;2023-02-07T03:22:21;15.33;;;5.23;;
20832;SDS011;56075;51.264;7.150;2023-02-07T03:24:55;12.13;;;4.80;;
20832;SDS011;56075;51.264;7.150;2023-02-07T03:27:30;10.60;;;4.37;;
20832;SDS011;56075;51.264;7.150;2023-02-07T03:30:04;11.73;;;4.30;;
20832;SDS011;56075;51.264;7.150;2023-02-07T03:32:37;10.20;;;4.00;;
20832;SDS011;56075;51.264;7.150;2023-02-07T03:35:12;9.30;;;4.50;;
20832;SDS011;56075;51.264;7.150;2023-02-07T03:37:56;15.57;;;4.80;;
20832;SDS011;56075;51.264;7.150;2023-02-07T03:40:30;11.37;;;4.47;;
20832;SDS011;56075;51.264;7.150;2023-02-07T03:43:05;10.93;;;4.53;;
20832;SDS011;56075;51.264;7.150;2023-02-07T03:45:37;11.47;;;4.47;;
20832;SDS011;56075;51.264;7.150;2023-02-07T03:48:09;12.37;;;4.80;;
20832;SDS011;56075;51.264;7.150;2023-02-07T03:50:40;10.50;;;4.43;;
20832;SDS011;56075;51.264;7.150;2023-02-07T03:53:12;10.87;;;4.20;;
20832;SDS011;56075;51.264;7.150;2023-02-07T03:55:43;11.63;;;4.60;;
20832;SDS011;56075;51.264;7.150;2023-02-07T03:58:15;10.70;;;4.27;;
20832;SDS011;56075;51.264;7.150;2023-02-07T04:00:46;10.60;;;3.73;;
20832;SDS011;56075;51.264;7.150;2023-02-07T04:03:18;11.43;;;4.27;;
20832;SDS011;56075;51.264;7.150;2023-02-07T04:05:49;12.03;;;4.80;;
20832;SDS011;56075;51.264;7.150;2023-02-07T04:08:21;13.17;;;4.37;;
20832;SDS011;56075;51.264;7.150;2023-02-07T04:10:56;11.73;;;4.27;;
20832;SDS011;56075;51.264;7.150;2023-02-07T04:13:28;11.23;;;4.60;;
20832;SDS011;56075;51.264;7.150;2023-02-07T04:15:59;12.33;;;4.80;;
20832;SDS011;56075;51.264;7.150;2023-02-07T04:18:31;13.50;;;4.13;;
20832;SDS011;56075;51.264;7.150;2023-02-07T04:21:03;12.73;;;4.80;;
20832;SDS011;56075;51.264;7.150;2023-02-07T04:23:35;10.23;;;4.93;;
20832;SDS011;56075;51.264;7.150;2023-02-07T04:26:06;14.20;;;4.87;;
20832;SDS011;56075;51.264;7.150;2023-02-07T04:28:38;14.53;;;5.00;;
20832;SDS011;56075;51.264;7.150;2023-02-07T04:31:09;15.60;;;5.20;;
20832;SDS011;56075;51.264;7.150;2023-02-07T04:33:41;15.03;;;4.87;;
20832;SDS011;56075;51.264;7.150;2023-02-07T04:36:13;11.13;;;4.30;;
20832;SDS011;56075;51.264;7.150;2023-02-07T04:38:44;15.20;;;5.10;;
20832;SDS011;56075;51.264;7.150;2023-02-07T04:41:16;14.43;;;4.97;;
20832;SDS011;56075;51.264;7.150;2023-02-07T04:43:47;18.97;;;5.87;;
20832;SDS011;56075;51.264;7.150;2023-02-07T04:46:19;15.37;;;5.37;;
20832;SDS011;56075;51.264;7.150;2023-02-07T04:48:50;16.80;;;5.67;;
20832;SDS011;56075;51.264;7.150;2023-02-07T04:51:23;15.70;;;5.80;;
20832;SDS011;56075;51.264;7.150;2023-02-07T04:53:54;17.63;;;5.40;;
20832;SDS011;56075;51.264;7.150;2023-02-07T04:56:26;15.30;;;5.53;;
20832;SDS011;56075;51.264;7.150;2023-02-07T04:58:57;15.13;;;5.03;;
20832;SDS011;56075;51.264;7.150;2023-02-07T05:01:28;14.67;;;5.40;;
20832;SDS011;56075;51.264;7.150;2023-02-07T05:04:00;16.50;;;5.83;;
20832;SDS011;56075;51.264;7.150;2023-02-07T05:06:31;18.33;;;5.97;;
20832;SDS011;56075;51.264;7.150;2023-02-07T05:09:03;13.70;;;5.07;;
20832;SDS011;56075;51.264;7.150;2023-02-07T05:11:34;13.63;;;5.00;;
20832;SDS011;56075;51.264;7.150;2023-02-07T05:14:06;15.17;;;5.43;;
20832;SDS011;56075;51.264;7.150;2023-02-07T05:16:37;16.97;;;5.07;;
20832;SDS011;56075;51.264;7.150;2023-02-07T05:19:09;12.00;;;5.00;;
20832;SDS011;56075;51.264;7.150;2023-02-07T05:21:40;17.33;;;5.77;;
20832;SDS011;56075;51.264;7.150;2023-02-07T05:24:12;11.10;;;5.37;;
20832;SDS011;56075;51.264;7.150;2023-02-07T05:26:43;12.97;;;5.47;;
20832;SDS011;56075;51.264;7.150;2023-02-07T05:29:14;13.73;;;5.57;;
20832;SDS011;56075;51.264;7.150;2023-02-07T05:31:46;11.97;;;4.93;;
20832;SDS011;56075;51.264;7.150;2023-02-07T05:34:36;13.53;;;5.10;;
20832;SDS011;56075;51.264;7.150;2023-02-07T05:37:07;17.17;;;5.40;;
20832;SDS011;56075;51.264;7.150;2023-02-07T05:39:39;12.40;;;5.13;;
20832;SDS011;56075;51.264;7.150;2023-02-07T05:42:10;11.77;;;4.90;;
20832;SDS011;56075;51.264;7.150;2023-02-07T05:44:42;13.93;;;4.90;;
20832;SDS011;56075;51.264;7.150;2023-02-07T05:47:13;13.67;;;5.43;;
20832;SDS011;56075;51.264;7.150;2023-02-07T05:49:45;14.57;;;4.93;;
20832;SDS011;56075;51.264;7.150;2023-02-07T05:52:16;14.00;;;4.93;;
20832;SDS011;56075;51.264;7.150;2023-02-07T05:54:48;13.53;;;5.20;;
20832;SDS011;56075;51.264;7.150;2023-02-07T05:57:20;14.17;;;5.07;;
20832;SDS011;56075;51.264;7.150;2023-02-07T05:59:51;13.13;;;5.37;;
20832;SDS011;56075;51.264;7.150;2023-02-07T06:02:22;10.53;;;4.40;;
20832;SDS011;56075;51.264;7.150;2023-02-07T06:04:54;13.30;;;4.73;;
20832;SDS011;56075;51.264;7.150;2023-02-07T06:07:25;16.67;;;5.00;;
20832;SDS011;56075;51.264;7.150;2023-02-07T06:09:57;13.33;;;4.93;;
20832;SDS011;56075;51.264;7.150;2023-02-07T06:12:28;11.43;;;4.43;;
20832;SDS011;56075;51.264;7.150;2023-02-07T06:15:00;12.80;;;4.80;;
20832;SDS011;56075;51.264;7.150;2023-02-07T06:17:32;10.83;;;4.80;;
20832;SDS011;56075;51.264;7.150;2023-02-07T06:20:04;17.37;;;5.60;;
20832;SDS011;56075;51.264;7.150;2023-02-07T06:22:35;16.37;;;5.37;;
20832;SDS011;56075;51.264;7.150;2023-02-07T06:25:07;13.83;;;5.00;;
20832;SDS011;56075;51.264;7.150;2023-02-07T06:27:41;16.23;;;5.13;;
20832;SDS011;56075;51.264;7.150;2023-02-07T06:30:12;18.33;;;4.93;;
20832;SDS011;56075;51.264;7.150;2023-02-07T06:32:44;15.80;;;5.90;;
20832;SDS011;56075;51.264;7.150;2023-02-07T06:35:15;13.03;;;5.10;;
20832;SDS011;56075;51.264;7.150;2023-02-07T06:37:47;15.07;;;5.77;;
20832;SDS011;56075;51.264;7.150;2023-02-07T06:40:18;14.47;;;5.73;;
20832;SDS011;56075;51.264;7.150;2023-02-07T06:42:49;13.13;;;5.50;;
20832;SDS011;56075;51.264;7.150;2023-02-07T06:45:21;15.80;;;5.83;;
20832;SDS011;56075;51.264;7.150;2023-02-07T06:47:52;16.57;;;5.43;;
20832;SDS011;56075;51.264;7.150;2023-02-07T06:50:24;12.70;;;5.17;;
20832;SDS011;56075;51.264;7.150;2023-02-07T06:52:55;13.00;;;4.77;;
20832;SDS011;56075;51.264;7.150;2023-02-07T06:55:34;12.60;;;5.20;;
20832;SDS011;56075;51.264;7.150;2023-02-07T06:58:06;12.00;;;5.23;;
20832;SDS011;56075;51.264;7.150;2023-02-07T07:00:37;14.63;;;5.93;;
20832;SDS011;56075;51.264;7.150;2023-02-07T07:03:12;19.90;;;7.00;;
20832;SDS011;56075;51.264;7.150;2023-02-07T07:05:44;14.80;;;5.20;;
20832;SDS011;56075;51.264;7.150;2023-02-07T07:08:15;12.07;;;5.30;;
20832;SDS011;56075;51.264;7.150;2023-02-07T07:10:48;11.30;;;5.20;;
20832;SDS011;56075;51.264;7.150;2023-02-07T07:13:19;13.50;;;5.27;;
20832;SDS011;56075;51.264;7.150;2023-02-07T07:15:51;16.07;;;5.50;;
20832;SDS011;56075;51.264;7.150;2023-02-07T07:18:22;11.07;;;5.60;;
20832;SDS011;56075;51.264;7.150;2023-02-07T07:20:54;13.57;;;5.60;;
20832;SDS011;56075;51.264;7.150;2023-02-07T07:23:25;13.03;;;5.17;;
20832;SDS011;56075;51.264;7.150;2023-02-07T07:25:57;15.03;;;5.13;;
20832;SDS011;56075;51.264;7.150;2023-02-07T07:28:28;17.00;;;6.03;;
20832;SDS011;56075;51.264;7.150;2023-02-07T07:31:03;11.93;;;5.50;;
20832;SDS011;56075;51.264;7.150;2023-02-07T07:33:36;14.67;;;5.50;;
20832;SDS011;56075;51.264;7.150;2023-02-07T07:36:08;13.30;;;4.80;;
20832;SDS011;56075;51.264;7.150;2023-02-07T07:38:39;11.43;;;4.37;;
20832;SDS011;56075;51.264;7.150;2023-02-07T07:41:10;14.47;;;5.50;;
20832;SDS011;56075;51.264;7.150;2023-02-07T07:43:42;13.47;;;5.47;;
20832;SDS011;56075;51.264;7.150;2023-02-07T07:46:13;14.10;;;5.50;;
20832;SDS011;56075;51.264;7.150;2023-02-07T07:48:45;15.43;;;5.63;;
20832;SDS011;56075;51.264;7.150;2023-02-07T07:51:16;11.23;;;4.37;;
20832;SDS011;56075;51.264;7.150;2023-02-07T07:53:48;14.43;;;4.87;;
20832;SDS011;56075;51.264;7.150;2023-02-07T07:56:20;13.57;;;4.87;;
20832;SDS011;56075;51.264;7.150;2023-02-07T07:58:53;17.10;;;4.67;;
20832;SDS011;56075;51.264;7.150;2023-02-07T08:01:24;14.23;;;5.43;;
20832;SDS011;56075;51.264;7.150;2023-02-07T08:03:56;15.17;;;5.60;;
20832;SDS011;56075;51.264;7.150;2023-02-07T08:06:27;13.63;;;4.73;;
20832;SDS011;56075;51.264;7.150;2023-02-07T08:08:59;14.10;;;5.73;;
20832;SDS011;56075;51.264;7.150;2023-02-07T08:11:30;12.87;;;4.53;;
20832;SDS011;56075;51.264;7.150;2023-02-07T08:14:02;12.67;;;4.20;;
20832;SDS011;56075;51.264;7.150;2023-02-07T08:16:33;13.67;;;4.73;;
20832;SDS011;56075;51.264;7.150;2023-02-07T08:19:05;12.03;;;4.70;;
20832;SDS011;56075;51.264;7.150;2023-02-07T08:21:36;13.80;;;4.87;;
20832;SDS011;56075;51.264;7.150;2023-02-07T08:24:08;10.53;;;4.63;;
20832;SDS011;56075;51.264;7.150;2023-02-07T08:26:40;14.13;;;5.30;;
20832;SDS011;56075;51.264;7.150;2023-02-07T08:29:12;15.37;;;5.70;;
20832;SDS011;56075;51.264;7.150;2023-02-07T08:31:43;13.27;;;5.50;;
20832;SDS011;56075;51.264;7.150;2023-02-07T08:34:17;14.07;;;5.37;;
20832;SDS011;56075;51.264;7.150;2023-02-07T08:36:53;11.07;;;4.93;;
20832;SDS011;56075;51.264;7.150;2023-02-07T08:39:24;13.63;;;5.30;;
20832;SDS011;56075;51.264;7.150;2023-02-07T08:41:56;14.40;;;4.73;;
20832;SDS011;56075;51.264;7.150;2023-02-07T08:44:27;16.67;;;5.37;;
20832;SDS011;56075;51.264;7.150;2023-02-07T08:46:59;11.40;;;4.37;;
20832;SDS011;56075;51.264;7.150;2023-02-07T08:49:30;10.93;;;4.40;;
20832;SDS011;56075;51.264;7.150;2023-02-07T08:52:02;10.00;;;4.87;;
20832;SDS011;56075;51.264;7.150;2023-02-07T08:54:33;10.03;;;3.93;;
20832;SDS011;56075;51.264;7.150;2023-02-07T08:57:04;9.80;;;4.20;;
20832;SDS011;56075;51.264;7.150;2023-02-07T08:59:36;8.33;;;3.63;;
20832;SDS011;56075;51.264;7.150;2023-02-07T09:02:09;10.93;;;4.40;;
20832;SDS011;56075;51.264;7.150;2023-02-07T09:04:41;10.20;;;4.00;;
20832;SDS011;56075;51.264;7.150;2023-02-07T09:07:12;10.17;;;3.83;;
20832;SDS011;56075;51.264;7.150;2023-02-07T09:09:44;9.80;;;3.93;;
20832;SDS011;56075;51.264;7.150;2023-02-07T09:12:15;7.87;;;3.27;;
20832;SDS011;56075;51.264;7.150;2023-02-07T09:14:47;7.13;;;3.43;;
20832;SDS011;56075;51.264;7.150;2023-02-07T09:17:19;7.73;;;3.70;;
20832;SDS011;56075;51.264;7.150;2023-02-07T09:19:50;7.67;;;3.37;;
20832;SDS011;56075;51.264;7.150;2023-02-07T09:22:21;9.70;;;3.77;;
20832;SDS011;56075;51.264;7.150;2023-02-07T09:24:53;8.43;;;3.13;;
20832;SDS011;56075;51.264;7.150;2023-02-07T09:27:24;6.03;;;2.90;;
20832;SDS011;56075;51.264;7.150;2023-02-07T09:29:56;7.43;;;3.30;;
20832;SDS011;56075;51.264;7.150;2023-02-07T09:32:27;5.70;;;2.80;;
20832;SDS011;56075;51.264;7.150;2023-02-07T09:34:59;6.60;;;2.60;;
20832;SDS011;56075;51.264;7.150;2023-02-07T09:37:30;6.97;;;3.40;;
20832;SDS011;56075;51.264;7.150;2023-02-07T09:40:02;7.77;;;3.80;;
20832;SDS011;56075;51.264;7.150;2023-02-07T09:42:36;7.33;;;3.67;;
20832;SDS011;56075;51.264;7.150;2023-02-07T09:45:11;7.13;;;3.40;;
20832;SDS011;56075;51.264;7.150;2023-02-07T09:47:47;5.53;;;2.80;;
20832;SDS011;56075;51.264;7.150;2023-02-07T09:50:22;8.47;;;3.23;;
20832;SDS011;56075;51.264;7.150;2023-02-07T09:52:56;6.50;;;3.50;;
20832;SDS011;56075;51.264;7.150;2023-02-07T09:55:49;7.23;;;3.70;;
20832;SDS011;56075;51.264;7.150;2023-02-07T09:58:26;8.27;;;3.37;;
20832;SDS011;56075;51.264;7.150;2023-02-07T10:01:06;7.27;;;3.13;;
20832;SDS011;56075;51.264;7.150;2023-02-07T10:03:43;5.97;;;3.10;;
20832;SDS011;56075;51.264;7.150;2023-02-07T10:06:19;5.37;;;3.07;;
20832;SDS011;56075;51.264;7.150;2023-02-07T10:08:57;6.40;;;3.30;;
20832;SDS011;56075;51.264;7.150;2023-02-07T10:14:07;5.53;;;2.73;;
20832;SDS011;56075;51.264;7.150;2023-02-07T10:16:45;8.07;;;2.70;;
20832;SDS011;56075;51.264;7.150;2023-02-07T10:19:25;5.23;;;3.07;;
20832;SDS011;56075;51.264;7.150;2023-02-07T10:24:51;5.63;;;2.97;;
20832;SDS011;56075;51.264;7.150;2023-02-07T10:27:28;6.73;;;3.37;;
20832;SDS011;56075;51.264;7.150;2023-02-07T10:30:07;8.47;;;3.43;;
20832;SDS011;56075;51.264;7.150;2023-02-07T10:32:42;5.53;;;3.00;;
20832;SDS011;56075;51.264;7.150;2023-02-07T10:35:20;6.37;;;3.27;;
20832;SDS011;56075;51.264;7.150;2023-02-07T10:37:54;7.57;;;3.40;;
20832;SDS011;56075;51.264;7.150;2023-02-07T10:40:34;6.03;;;3.23;;
20832;SDS011;56075;51.264;7.150;2023-02-07T10:43:10;7.63;;;3.40;;
20832;SDS011;56075;51.264;7.150;2023-02-07T10:45:43;6.83;;;3.40;;
20832;SDS011;56075;51.264;7.150;2023-02-07T10:48:15;6.90;;;3.73;;
20832;SDS011;56075;51.264;7.150;2023-02-07T10:50:48;7.43;;;3.53;;
20832;SDS011;56075;51.264;7.150;2023-02-07T10:56:21;5.70;;;3.20;;
20832;SDS011;56075;51.264;7.150;2023-02-07T10:58:57;5.33;;;2.77;;
20832;SDS011;56075;51.264;7.150;2023-02-07T11:01:29;10.47;;;3.23;;
20832;SDS011;56075;51.264;7.150;2023-02-07T11:04:02;7.60;;;3.20;;
20832;SDS011;56075;51.264;7.150;2023-02-07T11:06:58;7.93;;;3.67;;
20832;SDS011;56075;51.264;7.150;2023-02-07T11:09:30;5.83;;;3.27;;
20832;SDS011;56075;51.264;7.150;2023-02-07T11:12:19;8.03;;;3.93;;
20832;SDS011;56075;51.264;7.150;2023-02-07T11:14:59;5.23;;;3.10;;
20832;SDS011;56075;51.264;7.150;2023-02-07T11:17:31;7.33;;;3.30;;
20832;SDS011;56075;51.264;7.150;2023-02-07T11:20:04;5.83;;;3.03;;
20832;SDS011;56075;51.264;7.150;2023-02-07T11:22:36;4.63;;;2.90;;
20832;SDS011;56075;51.264;7.150;2023-02-07T11:25:08;7.33;;;3.63;;
20832;SDS011;56075;51.264;7.150;2023-02-07T11:27:39;9.77;;;3.30;;
20832;SDS011;56075;51.264;7.150;2023-02-07T11:30:16;5.93;;;3.33;;
20832;SDS011;56075;51.264;7.150;2023-02-07T11:32:59;7.07;;;3.50;;
20832;SDS011;56075;51.264;7.150;2023-02-07T11:35:31;9.17;;;3.50;;
20832;SDS011;56075;51.264;7.150;2023-02-07T11:38:12;7.40;;;3.50;;
20832;SDS011;56075;51.264;7.150;2023-02-07T11:40:46;8.77;;;3.87;;
20832;SDS011;56075;51.264;7.150;2023-02-07T11:43:20;5.93;;;3.50;;
20832;SDS011;56075;51.264;7.150;2023-02-07T11:45:53;6.67;;;2.80;;
20832;SDS011;56075;51.264;7.150;2023-02-07T11:48:30;6.30;;;3.30;;
20832;SDS011;56075;51.264;7.150;2023-02-07T11:51:03;5.57;;;3.13;;
20832;SDS011;56075;51.264;7.150;2023-02-07T11:53:39;5.63;;;3.10;;
20832;SDS011;56075;51.264;7.150;2023-02-07T11:56:24;5.33;;;3.10;;
20832;SDS011;56075;51.264;7.150;2023-02-07T11:58:56;5.63;;;3.10;;
20832;SDS011;56075;51.264;7.150;2023-02-07T12:01:29;5.77;;;2.90;;
20832;SDS011;56075;51.264;7.150;2023-02-07T12:04:07;6.70;;;3.30;;
20832;SDS011;56075;51.264;7.150;2023-02-07T12:06:40;5.80;;;3.00;;
20832;SDS011;56075;51.264;7.150;2023-02-07T12:09:56;5.40;;;2.70;;
20832;SDS011;56075;51.264;7.150;2023-02-07T12:12:18;5.30;;;2.63;;
20832;SDS011;56075;51.264;7.150;2023-02-07T12:14:51;8.40;;;2.43;;
20832;SDS011;56075;51.264;7.150;2023-02-07T12:17:31;5.90;;;3.13;;
20832;SDS011;56075;51.264;7.150;2023-02-07T12:20:10;5.77;;;2.63;;
20832;SDS011;56075;51.264;7.150;2023-02-07T12:22:47;4.33;;;2.53;;
20832;SDS011;56075;51.264;7.150;2023-02-07T12:25:21;4.40;;;2.50;;
20832;SDS011;56075;51.264;7.150;2023-02-07T12:27:54;5.40;;;2.70;;
20832;SDS011;56075;51.264;7.150;2023-02-07T12:30:36;6.80;;;2.57;;
20832;SDS011;56075;51.264;7.150;2023-02-07T12:33:18;5.73;;;2.73;;
20832;SDS011;56075;51.264;7.150;2023-02-07T12:36:07;4.40;;;2.30;;
20832;SDS011;56075;51.264;7.150;2023-02-07T12:38:50;5.00;;;2.80;;
20832;SDS011;56075;51.264;7.150;2023-02-07T12:41:35;5.53;;;2.03;;
20832;SDS011;56075;51.264;7.150;2023-02-07T12:53:03;5.70;;;2.60;;
20832;SDS011;56075;51.264;7.150;2023-02-07T12:55:07;5.07;;;2.57;;
20832;SDS011;56075;51.264;7.150;2023-02-07T13:00:32;4.97;;;2.50;;
20832;SDS011;56075;51.264;7.150;2023-02-07T13:03:35;5.90;;;2.60;;
20832;SDS011;56075;51.264;7.150;2023-02-07T13:06:10;4.63;;;2.17;;
20832;SDS011;56075;51.264;7.150;2023-02-07T13:11:33;4.93;;;2.40;;
20832;SDS011;56075;51.264;7.150;2023-02-07T13:17:33;4.33;;;2.27;;
20832;SDS011;56075;51.264;7.150;2023-02-07T13:22:58;4.40;;;2.43;;
20832;SDS011;56075;51.264;7.150;2023-02-07T13:25:35;4.10;;;2.27;;
20832;SDS011;56075;51.264;7.150;2023-02-07T13:28:20;5.53;;;2.30;;
20832;SDS011;56075;51.264;7.150;2023-02-07T13:30:53;4.27;;;2.37;;
20832;SDS011;56075;51.264;7.150;2023-02-07T13:33:29;8.07;;;2.30;;
20832;SDS011;56075;51.264;7.150;2023-02-07T13:36:44;7.50;;;2.70;;
20832;SDS011;56075;51.264;7.150;2023-02-07T13:41:58;3.37;;;1.93;;
20832;SDS011;56075;51.264;7.150;2023-02-07T13:50:14;5.80;;;2.60;;
20832;SDS011;56075;51.264;7.150;2023-02-07T13:53:13;6.10;;;2.43;;
20832;SDS011;56075;51.264;7.150;2023-02-07T13:55:47;4.93;;;2.40;;
20832;SDS011;56075;51.264;7.150;2023-02-07T13:58:49;7.23;;;2.47;;
20832;SDS011;56075;51.264;7.150;2023-02-07T14:01:48;4.53;;;2.13;;
20832;SDS011;56075;51.264;7.150;2023-02-07T14:04:21;5.07;;;2.53;;
20832;SDS011;56075;51.264;7.150;2023-02-07T14:09:31;5.43;;;2.50;;
20832;SDS011;56075;51.264;7.150;2023-02-07T14:14:44;3.50;;;2.10;;
20832;SDS011;56075;51.264;7.150;2023-02-07T14:19:59;3.97;;;2.00;;
20832;SDS011;56075;51.264;7.150;2023-02-07T14:30:35;4.03;;;2.10;;
20832;SDS011;56075;51.264;7.150;2023-02-07T14:33:14;4.10;;;2.27;;
20832;SDS011;56075;51.264;7.150;2023-02-07T14:38:40;2.80;;;1.70;;
20832;SDS011;56075;51.264;7.150;2023-02-07T14:41:34;4.23;;;2.30;;
20832;SDS011;56075;51.264;7.150;2023-02-07T14:44:06;3.33;;;1.93;;
20832;SDS011;56075;51.264;7.150;2023-02-07T14:46:40;5.73;;;2.40;;
20832;SDS011;56075;51.264;7.150;2023-02-07T14:52:27;3.55;;;2.25;;
20832;SDS011;56075;51.264;7.150;2023-02-07T14:55:03;3.83;;;2.00;;
20832;SDS011;56075;51.264;7.150;2023-02-07T15:03:27;4.32;;;2.45;;
20832;SDS011;56075;51.264;7.150;2023-02-07T15:06:00;3.58;;;2.38;;
20832;SDS011;56075;51.264;7.150;2023-02-07T15:08:32;5.70;;;2.45;;
20832;SDS011;56075;51.264;7.150;2023-02-07T15:11:10;4.25;;;2.40;;
20832;SDS011;56075;51.264;7.150;2023-02-07T15:13:43;4.53;;;2.60;;
20832;SDS011;56075;51.264;7.150;2023-02-07T15:16:20;3.90;;;2.30;;
20832;SDS011;56075;51.264;7.150;2023-02-07T15:18:55;6.88;;;2.47;;
20832;SDS011;56075;51.264;7.150;2023-02-07T15:21:33;3.90;;;2.20;;
20832;SDS011;56075;51.264;7.150;2023-02-07T15:24:18;4.07;;;2.35;;
20832;SDS011;56075;51.264;7.150;2023-02-07T15:27:01;3.88;;;2.30;;
20832;SDS011;56075;51.264;7.150;2023-02-07T15:29:33;4.55;;;2.60;;
20832;SDS011;56075;51.264;7.150;2023-02-07T15:32:23;5.80;;;2.60;;
20832;SDS011;56075;51.264;7.150;2023-02-07T15:34:55;5.35;;;2.75;;
20832;SDS011;56075;51.264;7.150;2023-02-07T15:37:27;5.78;;;2.30;;
20832;SDS011;56075;51.264;7.150;2023-02-07T15:39:58;4.82;;;2.78;;
20832;SDS011;56075;51.264;7.150;2023-02-07T15:42:30;5.18;;;2.60;;
20832;SDS011;56075;51.264;7.150;2023-02-07T15:45:01;4.53;;;2.58;;
20832;SDS011;56075;51.264;7.150;2023-02-07T15:47:33;4.30;;;2.22;;
20832;SDS011;56075;51.264;7.150;2023-02-07T15:50:21;4.70;;;2.45;;
20832;SDS011;56075;51.264;7.150;2023-02-07T15:52:54;5.22;;;2.70;;
20832;SDS011;56075;51.264;7.150;2023-02-07T15:55:34;7.25;;;2.30;;
20832;SDS011;56075;51.264;7.150;2023-02-07T15:58:20;5.57;;;2.88;;
20832;SDS011;56075;51.264;7.150;2023-02-07T16:01:03;4.32;;;2.35;;
20832;SDS011;56075;51.264;7.150;2023-02-07T16:03:42;5.43;;;2.40;;
20832;SDS011;56075;51.264;7.150;2023-02-07T16:06:35;5.35;;;2.45;;
20832;SDS011;56075;51.264;7.150;2023-02-07T16:09:05;4.70;;;2.30;;
20832;SDS011;56075;51.264;7.150;2023-02-07T16:11:37;5.55;;;2.75;;
20832;SDS011;56075;51.264;7.150;2023-02-07T16:14:17;4.68;;;2.65;;
20832;SDS011;56075;51.264;7.150;2023-02-07T16:16:51;6.65;;;2.78;;
20832;SDS011;56075;51.264;7.150;2023-02-07T16:19:29;5.72;;;2.90;;
20832;SDS011;56075;51.264;7.150;2023-02-07T16:22:11;7.68;;;4.03;;
20832;SDS011;56075;51.264;7.150;2023-02-07T16:24:45;5.80;;;2.95;;
20832;SDS011;56075;51.264;7.150;2023-02-07T16:27:19;8.18;;;3.63;;
20832;SDS011;56075;51.264;7.150;2023-02-07T16:29:53;6.22;;;3.55;;
20832;SDS011;56075;51.264;7.150;2023-02-07T16:32:27;8.15;;;4.32;;
20832;SDS011;56075;51.264;7.150;2023-02-07T16:34:59;8.80;;;3.87;;
20832;SDS011;56075;51.264;7.150;2023-02-07T16:37:30;13.50;;;4.37;;
20832;SDS011;56075;51.264;7.150;2023-02-07T16:40:02;11.13;;;4.43;;
20832;SDS011;56075;51.264;7.150;2023-02-07T16:42:33;9.30;;;4.57;;
20832;SDS011;56075;51.264;7.150;2023-02-07T16:45:05;12.13;;;4.77;;
20832;SDS011;56075;51.264;7.150;2023-02-07T16:47:36;9.60;;;4.80;;
20832;SDS011;56075;51.264;7.150;2023-02-07T16:50:18;10.50;;;4.47;;
20832;SDS011;56075;51.264;7.150;2023-02-07T16:52:50;10.53;;;4.80;;
20832;SDS011;56075;51.264;7.150;2023-02-07T16:55:23;10.87;;;4.90;;
20832;SDS011;56075;51.264;7.150;2023-02-07T16:57:58;10.40;;;5.00;;
20832;SDS011;56075;51.264;7.150;2023-02-07T17:00:31;10.73;;;5.40;;